createdAt,value
2018-07-27T00:00:41.163Z,24.70
2018-07-27T00:03:09.290Z,24.60
2018-07-27T00:05:37.429Z,24.70
2018-07-27T00:08:05.478Z,24.60
2018-07-27T00:10:33.517Z,24.60
2018-07-27T00:13:01.552Z,24.50
2018-07-27T00:15:29.609Z,24.40
2018-07-27T00:17:57.653Z,24.50
2018-07-27T00:20:25.705Z,24.50
2018-07-27T00:22:53.753Z,24.40
2018-07-27T00:25:21.806Z,24.40
2018-07-27T00:27:49.849Z,24.40
2018-07-27T00:30:17.894Z,24.30
2018-07-27T00:32:45.969Z,24.30
2018-07-27T00:35:14.029Z,24.20
2018-07-27T00:37:42.089Z,24.10
2018-07-27T00:40:10.774Z,24.10
2018-07-27T00:42:38.836Z,24.10
2018-07-27T00:45:06.936Z,24.20
2018-07-27T00:47:34.990Z,24.10
2018-07-27T00:50:03.037Z,24.10
2018-07-27T00:52:31.094Z,24.00
2018-07-27T00:54:59.145Z,24.00
2018-07-27T00:57:27.200Z,23.90
2018-07-27T00:59:55.260Z,24.00
2018-07-27T01:02:23.299Z,24.00
2018-07-27T01:04:51.917Z,23.90
2018-07-27T01:07:19.952Z,23.80
2018-07-27T01:09:48.009Z,23.90
2018-07-27T01:12:16.038Z,24.00
2018-07-27T01:14:44.074Z,23.90
2018-07-27T01:17:12.113Z,24.00
2018-07-27T01:19:40.170Z,24.10
2018-07-27T01:22:08.234Z,24.10
2018-07-27T01:24:36.269Z,24.10
2018-07-27T01:27:04.323Z,24.10
2018-07-27T01:29:32.346Z,23.90
2018-07-27T01:32:00.376Z,23.90
2018-07-27T01:34:28.421Z,24.00
2018-07-27T01:36:56.465Z,24.00
2018-07-27T01:39:24.500Z,24.10
2018-07-27T01:41:52.538Z,24.10
2018-07-27T01:44:20.571Z,24.00
2018-07-27T01:46:48.613Z,24.00
2018-07-27T01:51:44.784Z,23.90
2018-07-27T01:54:12.808Z,23.80
2018-07-27T01:56:40.833Z,23.80
2018-07-27T01:59:09.252Z,23.80
2018-07-27T02:01:37.272Z,23.80
2018-07-27T02:04:05.305Z,23.80
2018-07-27T02:06:33.349Z,23.60
2018-07-27T02:09:01.452Z,23.60
2018-07-27T02:11:29.497Z,23.70
2018-07-27T02:13:57.660Z,23.70
2018-07-27T02:16:25.711Z,23.70
2018-07-27T02:18:53.872Z,23.60
2018-07-27T02:21:22.039Z,23.60
2018-07-27T02:23:50.094Z,23.60
2018-07-27T02:26:19.074Z,23.50
2018-07-27T02:28:47.245Z,23.50
2018-07-27T02:31:15.302Z,23.30
2018-07-27T02:33:43.391Z,23.20
2018-07-27T02:36:11.483Z,23.20
2018-07-27T02:38:39.700Z,23.20
2018-07-27T02:41:07.881Z,23.20
2018-07-27T02:43:35.933Z,23.20
2018-07-27T02:46:04.057Z,23.30
2018-07-27T02:48:32.106Z,23.30
2018-07-27T02:51:00.145Z,23.30
2018-07-27T02:53:28.198Z,23.20
2018-07-27T02:55:56.473Z,23.20
2018-07-27T02:58:24.502Z,23.20
2018-07-27T03:00:52.606Z,23.20
2018-07-27T03:03:20.855Z,23.00
2018-07-27T03:05:48.900Z,23.00
2018-07-27T03:08:16.948Z,23.00
2018-07-27T03:10:44.998Z,23.00
2018-07-27T03:13:13.053Z,22.80
2018-07-27T03:15:41.093Z,22.80
2018-07-27T03:18:09.149Z,22.80
2018-07-27T03:20:37.204Z,22.70
2018-07-27T03:23:05.433Z,22.60
2018-07-27T03:25:33.525Z,22.30
2018-07-27T03:28:02.098Z,22.40
2018-07-27T03:30:30.318Z,22.40
2018-07-27T03:32:58.381Z,22.30
2018-07-27T03:35:26.432Z,22.50
2018-07-27T03:37:54.497Z,22.60
2018-07-27T03:40:22.546Z,22.50
2018-07-27T03:42:51.049Z,22.30
2018-07-27T03:45:19.095Z,22.20
2018-07-27T03:47:47.146Z,22.20
2018-07-27T03:52:43.997Z,22.20
2018-07-27T03:55:12.058Z,22.10
2018-07-27T03:57:40.139Z,22.10
2018-07-27T04:00:09.932Z,22.20
2018-07-27T04:02:38.006Z,22.20
2018-07-27T04:05:06.176Z,22.20
2018-07-27T04:07:34.362Z,22.20
2018-07-27T04:10:02.728Z,22.20
2018-07-27T04:12:31.325Z,22.30
2018-07-27T04:14:59.391Z,22.30
2018-07-27T04:17:27.457Z,22.10
2018-07-27T04:19:55.513Z,22.00
2018-07-27T04:22:23.633Z,22.00
2018-07-27T04:24:52.492Z,22.20
2018-07-27T04:27:20.939Z,22.20
2018-07-27T04:29:49.025Z,22.40
2018-07-27T04:32:17.112Z,22.40
2018-07-27T04:34:45.142Z,22.30
2018-07-27T04:37:13.202Z,22.30
2018-07-27T04:39:41.237Z,22.40
2018-07-27T04:42:09.301Z,22.40
2018-07-27T04:44:37.378Z,22.40
2018-07-27T04:47:05.498Z,22.60
2018-07-27T04:49:33.535Z,22.60
2018-07-27T04:52:01.821Z,22.50
2018-07-27T04:54:29.881Z,22.40
2018-07-27T04:56:57.925Z,22.50
2018-07-27T04:59:25.978Z,22.50
2018-07-27T05:01:54.092Z,22.60
2018-07-27T05:04:22.141Z,22.60
2018-07-27T05:06:50.202Z,22.60
2018-07-27T05:09:19.193Z,22.60
2018-07-27T05:11:47.291Z,22.60
2018-07-27T05:14:15.307Z,22.60
2018-07-27T05:16:44.535Z,22.70
2018-07-27T05:19:12.607Z,22.90
2018-07-27T05:21:40.878Z,22.90
2018-07-27T05:24:08.974Z,23.10
2018-07-27T05:26:37.019Z,23.10
2018-07-27T05:29:05.140Z,23.10
2018-07-27T05:31:33.219Z,23.20
2018-07-27T05:34:01.294Z,23.00
2018-07-27T05:36:29.430Z,23.20
2018-07-27T05:39:00.186Z,23.20
2018-07-27T05:46:24.706Z,22.80
2018-07-27T05:48:52.771Z,22.90
2018-07-27T05:51:20.837Z,23.00
2018-07-27T05:56:16.987Z,23.20
2018-07-27T06:01:13.709Z,23.50
2018-07-27T06:03:41.838Z,23.50
2018-07-27T06:06:11.490Z,23.60
2018-07-27T06:08:39.891Z,23.70
2018-07-27T06:11:08.240Z,23.60
2018-07-27T06:13:36.304Z,23.70
2018-07-27T06:16:04.361Z,23.80
2018-07-27T06:18:32.413Z,23.80
2018-07-27T06:21:00.548Z,23.80
2018-07-27T06:23:30.445Z,23.80
2018-07-27T06:25:58.492Z,23.80
2018-07-27T06:28:26.549Z,23.80
2018-07-27T06:30:54.621Z,24.10
2018-07-27T06:33:22.873Z,24.10
2018-07-27T06:35:50.929Z,24.20
2018-07-27T06:38:18.989Z,24.30
2018-07-27T06:40:47.029Z,24.30
2018-07-27T06:43:15.077Z,24.50
2018-07-27T06:45:43.121Z,24.50
2018-07-27T06:48:15.425Z,24.50
2018-07-27T06:50:43.478Z,24.80
2018-07-27T06:53:11.527Z,24.70
2018-07-27T06:58:08.461Z,25.00
2018-07-27T07:00:36.558Z,25.20
2018-07-27T07:03:04.812Z,25.20
2018-07-27T07:05:32.878Z,25.30
2018-07-27T07:08:00.948Z,25.50
2018-07-27T07:10:29.005Z,25.60
2018-07-27T07:12:57.077Z,25.50
2018-07-27T07:15:25.148Z,25.70
2018-07-27T07:17:53.217Z,25.80
2018-07-27T07:20:21.270Z,25.70
2018-07-27T07:22:49.316Z,25.80
2018-07-27T07:25:17.464Z,26.00
2018-07-27T07:27:45.661Z,25.90
2018-07-27T07:30:13.708Z,26.10
2018-07-27T07:32:41.771Z,26.10
2018-07-27T07:35:10.190Z,26.00
2018-07-27T07:37:38.257Z,25.90
2018-07-27T07:40:06.905Z,26.00
2018-07-27T07:42:35.122Z,26.10
2018-07-27T07:45:03.482Z,26.20
2018-07-27T07:47:32.106Z,26.20
2018-07-27T07:50:00.191Z,26.10
2018-07-27T07:52:28.326Z,26.10
2018-07-27T07:54:56.365Z,26.10
2018-07-27T07:57:24.401Z,26.20
2018-07-27T07:59:52.584Z,26.20
2018-07-27T08:02:20.698Z,26.40
2018-07-27T08:04:48.921Z,26.50
2018-07-27T08:07:16.993Z,26.70
2018-07-27T08:09:45.069Z,26.70
2018-07-27T08:12:13.122Z,26.60
2018-07-27T08:14:41.274Z,26.70
2018-07-27T08:17:09.400Z,26.80
2018-07-27T08:19:37.377Z,27.10
2018-07-27T08:22:05.441Z,27.20
2018-07-27T08:24:33.525Z,27.20
2018-07-27T08:27:03.558Z,27.20
2018-07-27T08:29:47.269Z,27.00
2018-07-27T08:32:15.518Z,27.10
2018-07-27T08:34:43.801Z,27.20
2018-07-27T08:37:11.840Z,27.10
2018-07-27T08:39:41.041Z,27.20
2018-07-27T08:42:09.074Z,27.10
2018-07-27T08:47:06.287Z,27.20
2018-07-27T08:49:34.473Z,27.30
2018-07-27T08:52:02.646Z,27.40
2018-07-27T08:54:31.204Z,27.40
2018-07-27T08:56:59.268Z,27.50
2018-07-27T08:59:27.296Z,27.70
2018-07-27T09:01:55.353Z,27.80
2018-07-27T09:04:23.417Z,27.90
2018-07-27T09:06:51.484Z,27.90
2018-07-27T09:09:19.757Z,27.90
2018-07-27T09:11:47.846Z,28.00
2018-07-27T09:14:15.901Z,28.00
2018-07-27T09:16:43.978Z,27.80
2018-07-27T09:21:41.982Z,28.20
2018-07-27T09:24:10.207Z,28.30
2018-07-27T09:26:38.130Z,28.40
2018-07-27T09:29:06.185Z,28.20
2018-07-27T09:31:34.238Z,28.40
2018-07-27T09:36:30.125Z,28.30
2018-07-27T09:38:58.170Z,28.40
2018-07-27T09:41:26.213Z,28.40
2018-07-27T09:43:54.270Z,28.60
2018-07-27T09:46:22.329Z,28.50
2018-07-27T09:48:53.644Z,28.60
2018-07-27T09:51:22.904Z,28.60
2018-07-27T09:53:51.718Z,28.70
2018-07-27T09:56:19.761Z,28.90
2018-07-27T09:58:47.793Z,28.90
2018-07-27T10:01:22.559Z,28.90
2018-07-27T10:03:52.197Z,28.70
2018-07-27T10:06:20.250Z,29.00
2018-07-27T10:08:48.474Z,29.00
2018-07-27T10:11:16.535Z,29.20
2018-07-27T10:13:44.621Z,29.30
2018-07-27T10:16:12.865Z,29.10
2018-07-27T10:18:40.933Z,29.00
2018-07-27T10:21:09.282Z,29.30
2018-07-27T10:23:37.389Z,29.20
2018-07-27T10:26:05.625Z,29.20
2018-07-27T10:28:33.705Z,29.40
2018-07-27T10:31:01.756Z,29.60
2018-07-27T10:33:30.069Z,29.80
2018-07-27T10:38:26.093Z,29.80
2018-07-27T10:40:54.166Z,29.90
2018-07-27T10:43:22.244Z,29.80
2018-07-27T10:45:50.791Z,29.80
2018-07-27T10:48:18.842Z,29.80
2018-07-27T10:50:46.885Z,29.90
2018-07-27T10:53:15.165Z,29.80
2018-07-27T10:55:43.210Z,29.80
2018-07-27T10:58:11.958Z,29.70
2018-07-27T11:00:40.038Z,30.10
2018-07-27T11:03:08.312Z,30.10
2018-07-27T11:05:36.455Z,30.10
2018-07-27T11:08:04.574Z,30.20
2018-07-27T11:10:32.631Z,30.20
2018-07-27T11:13:00.685Z,30.40
2018-07-27T11:15:28.718Z,30.50
2018-07-27T11:17:56.809Z,30.60
2018-07-27T11:20:24.862Z,30.60
2018-07-27T11:22:52.921Z,30.40
2018-07-27T11:25:20.975Z,30.50
2018-07-27T11:27:49.033Z,30.60
2018-07-27T11:30:17.118Z,30.70
2018-07-27T11:32:45.260Z,30.60
2018-07-27T11:35:13.416Z,30.70
2018-07-27T11:37:41.461Z,30.80
2018-07-27T11:40:09.863Z,30.80
2018-07-27T11:42:37.965Z,30.80
2018-07-27T11:45:05.982Z,30.90
2018-07-27T11:50:01.891Z,30.70
2018-07-27T11:52:29.966Z,30.70
2018-07-27T11:54:58.117Z,30.80
2018-07-27T11:57:26.165Z,30.80
2018-07-27T11:59:54.211Z,30.80
2018-07-27T12:02:22.285Z,30.90
2018-07-27T12:04:50.361Z,30.80
2018-07-27T12:07:18.597Z,30.80
2018-07-27T12:09:46.706Z,30.90
2018-07-27T12:12:14.962Z,31.00
2018-07-27T12:14:43.163Z,31.20
2018-07-27T12:17:11.102Z,31.20
2018-07-27T12:19:39.133Z,31.50
2018-07-27T12:22:07.247Z,31.50
2018-07-27T12:24:35.323Z,31.30
2018-07-27T12:27:03.422Z,31.30
2018-07-27T12:29:32.049Z,31.20
2018-07-27T12:32:00.145Z,31.20
2018-07-27T12:34:28.269Z,31.00
2018-07-27T12:36:56.413Z,30.90
2018-07-27T12:39:24.658Z,31.00
2018-07-27T12:41:52.718Z,31.20
2018-07-27T12:44:20.764Z,31.40
2018-07-27T12:46:48.842Z,31.40
2018-07-27T12:49:16.933Z,31.50
2018-07-27T12:51:44.981Z,31.60
2018-07-27T12:54:13.153Z,31.70
2018-07-27T12:56:41.239Z,31.70
2018-07-27T12:59:09.283Z,31.80
2018-07-27T13:01:37.568Z,31.80
2018-07-27T13:04:05.645Z,31.80
2018-07-27T13:06:33.881Z,31.80
2018-07-27T13:09:02.145Z,31.80
2018-07-27T13:11:30.205Z,31.80
2018-07-27T13:13:58.501Z,32.00
2018-07-27T13:16:26.534Z,32.00
2018-07-27T13:18:54.601Z,32.20
2018-07-27T13:21:22.716Z,32.00
2018-07-27T13:23:56.094Z,31.70
2018-07-27T13:26:24.185Z,31.50
2018-07-27T13:28:52.285Z,31.50
2018-07-27T13:31:29.371Z,31.60
2018-07-27T13:34:17.402Z,31.80
2018-07-27T13:36:45.496Z,31.90
2018-07-27T13:39:13.632Z,32.00
2018-07-27T13:41:41.676Z,32.10
2018-07-27T13:44:09.741Z,32.00
2018-07-27T13:46:42.556Z,31.60
2018-07-27T13:49:10.651Z,31.30
2018-07-27T13:51:38.661Z,31.20
2018-07-27T13:54:06.713Z,31.30
2018-07-27T13:56:34.781Z,31.30
2018-07-27T13:59:02.838Z,31.10
2018-07-27T14:01:31.875Z,31.30
2018-07-27T14:03:59.944Z,31.70
2018-07-27T14:06:28.008Z,32.00
2018-07-27T14:08:56.069Z,32.10
2018-07-27T14:11:24.141Z,32.00
2018-07-27T14:13:52.195Z,32.10
2018-07-27T14:16:20.237Z,32.50
2018-07-27T14:18:48.300Z,32.30
2018-07-27T14:21:16.429Z,32.40
2018-07-27T14:23:44.526Z,32.60
2018-07-27T14:26:12.533Z,32.80
2018-07-27T14:28:40.586Z,33.00
2018-07-27T14:31:08.650Z,32.70
2018-07-27T14:33:36.699Z,32.50
2018-07-27T14:36:04.882Z,32.40
2018-07-27T14:38:32.953Z,32.20
2018-07-27T14:41:00.983Z,31.60
2018-07-27T14:43:29.041Z,31.20
2018-07-27T14:45:57.265Z,31.50
2018-07-27T14:48:25.316Z,31.70
2018-07-27T14:50:53.407Z,31.40
2018-07-27T14:53:21.460Z,31.60
2018-07-27T14:55:49.506Z,32.00
2018-07-27T14:58:17.542Z,31.70
2018-07-27T15:00:45.597Z,31.80
2018-07-27T15:03:13.637Z,31.80
2018-07-27T15:05:41.694Z,31.70
2018-07-27T15:08:09.737Z,31.70
2018-07-27T15:10:37.812Z,31.80
2018-07-27T15:13:05.933Z,31.60
2018-07-27T15:15:33.996Z,32.00
2018-07-27T15:18:02.033Z,32.10
2018-07-27T15:20:30.178Z,31.80
2018-07-27T15:22:58.209Z,31.20
2018-07-27T15:25:26.270Z,31.10
2018-07-27T15:27:54.441Z,30.80
2018-07-27T15:30:22.503Z,31.00
2018-07-27T15:35:18.494Z,31.30
2018-07-27T15:37:47.178Z,31.60
2018-07-27T15:40:15.586Z,31.50
2018-07-27T15:42:43.633Z,31.50
2018-07-27T15:45:11.733Z,31.90
2018-07-27T15:47:40.004Z,31.90
2018-07-27T15:50:08.277Z,31.90
2018-07-27T15:52:36.410Z,31.60
2018-07-27T15:55:04.465Z,31.60
2018-07-27T15:57:32.521Z,31.40
2018-07-27T16:00:00.666Z,31.50
2018-07-27T16:02:29.833Z,31.50
2018-07-27T16:04:57.914Z,31.40
2018-07-27T16:07:25.965Z,31.40
2018-07-27T16:09:54.386Z,31.40
2018-07-27T16:12:22.450Z,31.10
2018-07-27T16:14:50.512Z,31.30
2018-07-27T16:17:18.565Z,31.40
2018-07-27T16:19:46.724Z,31.50
2018-07-27T16:22:14.800Z,31.60
2018-07-27T16:24:42.848Z,31.60
2018-07-27T16:27:10.898Z,32.20
2018-07-27T16:32:07.073Z,32.80
2018-07-27T16:34:35.321Z,32.70
2018-07-27T16:37:03.410Z,32.80
2018-07-27T16:39:31.470Z,33.30
2018-07-27T16:41:59.566Z,33.10
2018-07-27T16:44:27.662Z,32.90
2018-07-27T16:46:55.713Z,32.90
2018-07-27T16:49:25.158Z,31.50
2018-07-27T16:51:55.144Z,31.40
2018-07-27T16:54:23.169Z,31.30
2018-07-27T16:56:52.434Z,30.80
2018-07-27T16:59:20.473Z,30.70
2018-07-27T17:01:48.529Z,30.30
2018-07-27T17:04:16.781Z,30.30
2018-07-27T17:06:44.853Z,29.90
2018-07-27T17:09:14.034Z,29.90
2018-07-27T17:11:42.114Z,30.10
2018-07-27T17:14:10.169Z,30.10
2018-07-27T17:16:38.229Z,30.10
2018-07-27T17:19:06.322Z,29.80
2018-07-27T17:21:34.678Z,29.80
2018-07-27T17:24:03.005Z,29.60
2018-07-27T17:26:31.051Z,29.50
2018-07-27T17:28:59.105Z,29.50
2018-07-27T17:31:27.157Z,29.40
2018-07-27T17:33:55.227Z,29.90
2018-07-27T17:36:23.293Z,29.90
2018-07-27T17:38:51.324Z,29.90
2018-07-27T17:41:19.385Z,29.60
2018-07-27T17:43:47.479Z,29.60
2018-07-27T17:46:15.530Z,29.50
2018-07-27T17:48:43.577Z,29.50
2018-07-27T17:51:11.630Z,29.30
2018-07-27T17:53:40.661Z,29.20
2018-07-27T17:56:09.255Z,29.20
2018-07-27T17:58:37.307Z,29.30
2018-07-27T18:01:05.410Z,29.20
2018-07-27T18:03:33.457Z,29.20
2018-07-27T18:06:01.556Z,29.30
2018-07-27T18:08:29.602Z,29.20
2018-07-27T18:10:57.665Z,29.20
2018-07-27T18:13:25.837Z,29.00
2018-07-27T18:15:53.917Z,28.70
2018-07-27T18:18:21.963Z,28.70
2018-07-27T18:20:50.054Z,28.70
2018-07-27T18:23:18.117Z,28.70
2018-07-27T18:28:14.016Z,28.80
2018-07-27T18:30:42.068Z,28.70
2018-07-27T18:33:10.154Z,28.60
2018-07-27T18:35:38.394Z,28.60
2018-07-27T18:38:06.989Z,28.60
2018-07-27T18:40:35.017Z,28.50
2018-07-27T18:43:03.299Z,28.60
2018-07-27T18:45:31.371Z,28.70
2018-07-27T18:47:59.433Z,28.60
2018-07-27T18:50:27.513Z,28.60
2018-07-27T18:52:55.717Z,28.30
2018-07-27T18:55:23.766Z,28.30
2018-07-27T19:00:19.746Z,28.10
2018-07-27T19:02:47.788Z,28.10
2018-07-27T19:05:15.822Z,28.10
2018-07-27T19:07:43.945Z,28.10
2018-07-27T19:10:12.031Z,28.10
2018-07-27T19:12:40.092Z,27.90
2018-07-27T19:15:08.748Z,27.90
2018-07-27T19:17:37.033Z,27.90
2018-07-27T19:20:05.319Z,28.00
2018-07-27T19:22:33.390Z,28.00
2018-07-27T19:25:01.581Z,27.90
2018-07-27T19:27:29.993Z,27.90
2018-07-27T19:29:58.069Z,27.90
2018-07-27T19:32:26.613Z,27.80
2018-07-27T19:34:54.805Z,27.80
2018-07-27T19:37:23.258Z,27.70
2018-07-27T19:39:51.321Z,27.70
2018-07-27T19:42:19.473Z,27.60
2018-07-27T19:44:47.569Z,27.60
2018-07-27T19:47:15.630Z,27.60
2018-07-27T19:49:43.766Z,27.60
2018-07-27T19:52:11.819Z,27.60
2018-07-27T19:54:39.873Z,27.60
2018-07-27T19:57:07.957Z,27.40
2018-07-27T19:59:36.006Z,27.40
2018-07-27T20:02:04.080Z,27.40
2018-07-27T20:04:32.124Z,27.30
2018-07-27T20:07:00.201Z,27.30
2018-07-27T20:09:28.249Z,27.30
2018-07-27T20:11:56.297Z,27.10
2018-07-27T20:14:24.357Z,27.20
2018-07-27T20:16:52.405Z,27.00
2018-07-27T20:19:20.442Z,26.90
2018-07-27T20:21:48.502Z,26.90
2018-07-27T20:24:16.599Z,26.90
2018-07-27T20:26:44.634Z,26.90
2018-07-27T20:29:12.726Z,26.90
2018-07-27T20:31:40.730Z,26.90
2018-07-27T20:34:08.780Z,26.70
2018-07-27T20:36:36.844Z,26.60
2018-07-27T20:39:07.969Z,26.60
2018-07-27T20:44:04.027Z,26.60
2018-07-27T20:46:32.078Z,26.40
2018-07-27T20:49:00.157Z,26.40
2018-07-27T20:51:28.259Z,26.40
2018-07-27T20:53:56.273Z,26.40
2018-07-27T20:56:24.529Z,26.30
2018-07-27T20:58:52.585Z,26.30
2018-07-27T21:01:20.641Z,26.20
2018-07-27T21:03:48.708Z,26.20
2018-07-27T21:06:16.760Z,26.20
2018-07-27T21:08:45.094Z,26.10
2018-07-27T21:11:13.125Z,26.00
2018-07-27T21:13:41.294Z,26.00
2018-07-27T21:16:10.750Z,26.20
2018-07-27T21:18:40.200Z,25.90
2018-07-27T21:21:10.415Z,26.00
2018-07-27T21:23:40.001Z,26.00
2018-07-27T21:26:09.327Z,26.00
2018-07-27T21:28:38.534Z,25.80
2018-07-27T21:31:08.387Z,25.90
2018-07-27T21:33:37.342Z,25.80
2018-07-27T21:36:06.423Z,25.60
2018-07-27T21:38:34.530Z,25.50
2018-07-27T21:41:02.658Z,25.60
2018-07-27T21:43:30.686Z,25.60
2018-07-27T21:45:58.740Z,25.70
2018-07-27T21:48:27.429Z,25.60
2018-07-27T21:50:55.478Z,25.50
2018-07-27T21:53:23.574Z,25.50
2018-07-27T21:55:51.607Z,25.60
2018-07-27T21:58:19.662Z,25.60
2018-07-27T22:00:47.702Z,25.60
2018-07-27T22:03:15.757Z,25.60
2018-07-27T22:05:43.801Z,25.50
2018-07-27T22:08:11.856Z,25.50
2018-07-27T22:10:39.917Z,25.50
2018-07-27T22:13:08.627Z,25.50
2018-07-27T22:15:36.634Z,25.50
2018-07-27T22:18:04.688Z,25.40
2018-07-27T22:20:32.765Z,25.40
2018-07-27T22:23:00.808Z,25.40
2018-07-27T22:25:28.861Z,25.30
2018-07-27T22:27:56.909Z,25.30
2018-07-27T22:30:25.043Z,25.10
2018-07-27T22:32:53.028Z,24.90
2018-07-27T22:35:21.074Z,24.90
2018-07-27T22:37:49.109Z,24.90
2018-07-27T22:40:17.237Z,24.90
2018-07-27T22:42:45.276Z,25.00
2018-07-27T22:45:13.326Z,25.00
2018-07-27T22:47:41.385Z,25.00
2018-07-27T22:50:09.441Z,25.10
2018-07-27T22:52:39.419Z,25.00
2018-07-27T22:55:09.389Z,25.00
2018-07-27T22:57:37.494Z,24.90
2018-07-27T23:00:07.570Z,24.90
2018-07-27T23:02:35.622Z,24.90
2018-07-27T23:05:04.028Z,25.10
2018-07-27T23:10:00.082Z,25.00
2018-07-27T23:12:28.170Z,25.00
2018-07-27T23:14:56.281Z,25.00
2018-07-27T23:17:24.290Z,25.00
2018-07-27T23:19:52.345Z,25.10
2018-07-27T23:22:20.393Z,25.20
2018-07-27T23:24:48.446Z,24.90
2018-07-27T23:27:16.501Z,24.90
2018-07-27T23:29:44.557Z,24.80
2018-07-27T23:32:12.597Z,24.80
2018-07-27T23:34:40.665Z,24.80
2018-07-27T23:37:08.714Z,24.60
2018-07-27T23:39:36.766Z,24.70
2018-07-27T23:42:04.813Z,24.40
2018-07-27T23:44:32.858Z,24.20
2018-07-27T23:47:00.908Z,24.20
2018-07-27T23:49:28.961Z,24.10
2018-07-27T23:51:57.185Z,24.20
2018-07-27T23:54:25.217Z,24.20
2018-07-27T23:56:53.284Z,24.20
2018-07-27T23:59:21.329Z,24.20
